createdAt,value
2022-11-29T00:01:43.221Z,99409.38
2022-11-29T00:04:11.986Z,99406.88
2022-11-29T00:06:40.714Z,99415.94
2022-11-29T00:09:13.164Z,99407.13
2022-11-29T00:12:01.337Z,99409.88
2022-11-29T00:14:30.439Z,99405.50
2022-11-29T00:17:02.623Z,99406.81
2022-11-29T00:19:32.553Z,99400.78
2022-11-29T00:22:01.561Z,99408.97
2022-11-29T00:24:31.704Z,99407.56
2022-11-29T00:27:02.138Z,99405.91
2022-11-29T00:29:31.478Z,99400.69
2022-11-29T00:32:00.321Z,99400.91
2022-11-29T00:34:28.964Z,99401.16
2022-11-29T00:36:57.360Z,99405.56
2022-11-29T00:39:25.954Z,99403.91
2022-11-29T00:41:54.365Z,99399.50
2022-11-29T00:44:24.141Z,99402.50
2022-11-29T00:46:52.488Z,99406.31
2022-11-29T00:49:20.860Z,99409.63
2022-11-29T00:51:49.266Z,99411.53
2022-11-29T00:54:18.235Z,99408.78
2022-11-29T00:56:46.641Z,99404.38
2022-11-29T00:59:15.046Z,99414.75
2022-11-29T01:01:44.849Z,99413.91
2022-11-29T01:04:13.756Z,99421.06
2022-11-29T01:06:42.154Z,99403.81
2022-11-29T01:09:10.859Z,99412.00
2022-11-29T01:11:39.474Z,99410.38
2022-11-29T01:14:07.970Z,99408.69
2022-11-29T01:16:36.481Z,99412.28
2022-11-29T01:19:07.541Z,99410.38
2022-11-29T01:21:35.997Z,99405.97
2022-11-29T01:24:04.601Z,99404.31
2022-11-29T01:26:33.239Z,99400.75
2022-11-29T01:29:01.638Z,99398.84
2022-11-29T01:31:33.462Z,99403.50
2022-11-29T01:34:06.721Z,99406.44
2022-11-29T01:36:35.838Z,99416.31
2022-11-29T01:39:07.332Z,99413.00
2022-11-29T01:41:38.393Z,99415.97
2022-11-29T01:44:29.315Z,99410.50
2022-11-29T01:46:58.508Z,99410.50
2022-11-29T01:49:33.641Z,99406.97
2022-11-29T01:52:07.809Z,99398.19
2022-11-29T01:54:40.753Z,99400.56
2022-11-29T01:57:10.534Z,99404.63
2022-11-29T01:59:43.307Z,99401.56
2022-11-29T02:02:17.163Z,99398.47
2022-11-29T02:04:48.228Z,99404.47
2022-11-29T02:07:17.512Z,99408.50
2022-11-29T02:09:46.007Z,99407.31
2022-11-29T02:12:26.002Z,99406.16
2022-11-29T02:15:19.285Z,99404.72
2022-11-29T02:18:04.445Z,99410.47
2022-11-29T02:21:28.951Z,99403.81
2022-11-29T02:24:39.127Z,99408.09
2022-11-29T02:27:50.222Z,99402.56
2022-11-29T02:30:34.737Z,99403.03
2022-11-29T02:33:37.852Z,99408.97
2022-11-29T02:36:52.177Z,99410.28
2022-11-29T02:40:01.703Z,99414.00
2022-11-29T02:43:33.622Z,99408.69
2022-11-29T02:46:23.637Z,99411.91
2022-11-29T02:49:12.215Z,99414.88
2022-11-29T02:51:48.114Z,99415.94
2022-11-29T02:54:25.478Z,99415.72
2022-11-29T02:56:58.332Z,99410.25
2022-11-29T02:59:46.622Z,99423.06
2022-11-29T03:02:26.199Z,99431.28
2022-11-29T03:05:10.871Z,99431.28
2022-11-29T03:07:55.889Z,99437.56
2022-11-29T03:10:39.178Z,99434.22
2022-11-29T03:13:17.642Z,99427.97
2022-11-29T03:15:59.095Z,99426.03
2022-11-29T03:18:47.229Z,99430.69
2022-11-29T03:21:30.248Z,99433.44
2022-11-29T03:24:06.010Z,99435.06
2022-11-29T03:26:41.265Z,99431.28
2022-11-29T03:29:22.587Z,99433.16
2022-11-29T03:32:01.573Z,99441.94
2022-11-29T03:34:52.990Z,99444.69
2022-11-29T03:37:36.415Z,99449.09
2022-11-29T03:40:08.926Z,99457.28
2022-11-29T03:42:44.624Z,99448.00
2022-11-29T03:45:20.134Z,99453.47
2022-11-29T03:47:59.644Z,99443.38
2022-11-29T03:50:36.178Z,99447.78
2022-11-29T03:53:16.484Z,99450.25
2022-11-29T03:55:54.362Z,99444.78
2022-11-29T03:58:44.920Z,99439.91
2022-11-29T04:02:12.516Z,99443.50
2022-11-29T04:05:38.461Z,99444.06
2022-11-29T04:09:06.329Z,99445.75
2022-11-29T04:12:18.107Z,99445.75
2022-11-29T04:15:47.749Z,99460.22
2022-11-29T04:19:00.007Z,99457.84
2022-11-29T04:21:40.873Z,99453.53
2022-11-29T04:25:04.972Z,99452.22
2022-11-29T04:28:00.721Z,99450.66
2022-11-29T04:30:36.666Z,99453.97
2022-11-29T04:33:53.835Z,99453.75
2022-11-29T04:37:19.476Z,99463.03
2022-11-29T04:40:26.254Z,99469.06
2022-11-29T04:43:16.915Z,99471.81
2022-11-29T04:46:31.726Z,99469.91
2022-11-29T04:49:26.855Z,99466.34
2022-11-29T04:52:24.024Z,99469.06
2022-11-29T04:55:05.688Z,99474.78
2022-11-29T04:57:44.324Z,99476.69
2022-11-29T05:00:16.889Z,99483.47
2022-11-29T05:02:58.468Z,99476.56
2022-11-29T05:05:37.534Z,99490.75
2022-11-29T05:08:30.115Z,99486.00
2022-11-29T05:11:11.801Z,99488.97
2022-11-29T05:13:55.086Z,99487.53
2022-11-29T05:16:45.955Z,99491.34
2022-11-29T05:19:41.160Z,99501.91
2022-11-29T05:22:29.648Z,99495.88
2022-11-29T05:25:22.502Z,99503.22
2022-11-29T05:27:59.193Z,99501.59
2022-11-29T05:30:44.796Z,99512.50
2022-11-29T05:33:28.780Z,99512.25
2022-11-29T05:36:09.174Z,99516.41
2022-11-29T05:38:56.595Z,99517.25
2022-11-29T05:41:47.722Z,99512.63
2022-11-29T05:44:25.232Z,99515.94
2022-11-29T05:47:00.610Z,99512.97
2022-11-29T05:49:41.283Z,99514.88
2022-11-29T05:52:26.358Z,99523.06
2022-11-29T05:55:24.039Z,99512.13
2022-11-29T05:58:00.117Z,99516.53
2022-11-29T06:00:36.035Z,99515.69
2022-11-29T06:03:19.121Z,99517.59
2022-11-29T06:05:53.091Z,99519.53
2022-11-29T06:08:31.054Z,99520.81
2022-11-29T06:11:05.976Z,99520.56
2022-11-29T06:13:51.002Z,99523.91
2022-11-29T06:17:01.954Z,99524.72
2022-11-29T06:20:15.137Z,99528.53
2022-11-29T06:23:07.600Z,99529.63
2022-11-29T06:26:00.674Z,99536.97
2022-11-29T06:28:49.814Z,99535.91
2022-11-29T06:31:22.424Z,99545.50
2022-11-29T06:34:02.678Z,99539.00
2022-11-29T06:36:39.101Z,99537.94
2022-11-29T06:39:10.321Z,99538.25
2022-11-29T06:41:39.267Z,99548.72
2022-11-29T06:44:08.946Z,99548.47
2022-11-29T06:46:47.142Z,99549.06
2022-11-29T06:49:24.276Z,99555.13
2022-11-29T06:52:09.234Z,99558.44
2022-11-29T06:54:53.899Z,99554.38
2022-11-29T06:57:33.069Z,99561.06
2022-11-29T07:00:13.998Z,99555.94
2022-11-29T07:03:15.280Z,99560.94
2022-11-29T07:05:44.367Z,99557.47
2022-11-29T07:08:19.835Z,99564.94
2022-11-29T07:10:51.472Z,99556.00
2022-11-29T07:13:21.306Z,99560.75
2022-11-29T07:16:02.230Z,99561.91
2022-11-29T07:18:40.917Z,99563.94
2022-11-29T07:21:21.252Z,99569.75
2022-11-29T07:24:06.971Z,99561.63
2022-11-29T07:26:43.455Z,99567.22
2022-11-29T07:29:30.191Z,99571.09
2022-11-29T07:32:09.043Z,99573.16
2022-11-29T07:34:50.529Z,99574.31
2022-11-29T07:37:30.733Z,99571.91
2022-11-29T07:40:07.811Z,99578.22
2022-11-29T07:42:47.164Z,99585.09
2022-11-29T07:45:25.090Z,99581.06
2022-11-29T07:47:53.676Z,99583.88
2022-11-29T07:50:23.076Z,99578.75
2022-11-29T07:52:51.614Z,99576.34
2022-11-29T07:55:24.009Z,99579.69
2022-11-29T07:57:53.639Z,99582.78
2022-11-29T08:00:23.287Z,99591.34
2022-11-29T08:02:52.362Z,99588.34
2022-11-29T08:05:20.862Z,99585.13
2022-11-29T08:07:49.421Z,99589.84
2022-11-29T08:10:20.326Z,99589.34
2022-11-29T08:12:51.811Z,99594.91
2022-11-29T08:15:22.094Z,99598.00
2022-11-29T08:17:51.066Z,99596.44
2022-11-29T08:20:20.425Z,99596.75
2022-11-29T08:22:56.516Z,99605.31
2022-11-29T08:25:27.746Z,99606.22
2022-11-29T08:27:56.656Z,99603.56
2022-11-29T08:30:25.545Z,99604.16
2022-11-29T08:32:54.227Z,99609.16
2022-11-29T08:35:24.218Z,99609.50
2022-11-29T08:37:53.099Z,99617.78
2022-11-29T08:40:21.555Z,99608.50
2022-11-29T08:42:51.354Z,99613.72
2022-11-29T08:45:19.924Z,99607.38
2022-11-29T08:47:48.317Z,99624.94
2022-11-29T08:50:19.009Z,99620.50
2022-11-29T08:53:07.096Z,99627.09
2022-11-29T08:55:39.996Z,99620.69
2022-11-29T08:58:13.355Z,99626.16
2022-11-29T09:00:45.687Z,99625.59
2022-11-29T09:03:31.984Z,99631.63
2022-11-29T09:06:10.484Z,99630.81
2022-11-29T09:08:40.720Z,99644.00
2022-11-29T09:11:13.278Z,99642.13
2022-11-29T09:13:44.981Z,99636.94
2022-11-29T09:16:18.030Z,99645.75
2022-11-29T09:18:51.950Z,99637.88
2022-11-29T09:21:21.281Z,99632.41
2022-11-29T09:23:49.645Z,99643.38
2022-11-29T09:26:20.767Z,99632.66
2022-11-29T09:28:50.607Z,99627.50
2022-11-29T09:31:20.253Z,99628.91
2022-11-29T09:33:49.618Z,99637.72
2022-11-29T09:36:18.128Z,99636.88
2022-11-29T09:38:46.703Z,99635.81
2022-11-29T09:41:49.956Z,99636.56
2022-11-29T09:44:34.250Z,99623.13
2022-11-29T09:47:13.249Z,99628.34
2022-11-29T09:49:59.145Z,99629.75
2022-11-29T09:52:42.395Z,99627.59
2022-11-29T09:55:40.085Z,99629.22
2022-11-29T09:58:16.196Z,99627.91
2022-11-29T10:00:53.683Z,99621.34
2022-11-29T10:03:27.535Z,99628.34
2022-11-29T10:06:01.150Z,99623.00
2022-11-29T10:08:37.619Z,99619.31
2022-11-29T10:11:20.817Z,99614.25
2022-11-29T10:13:55.409Z,99617.13
2022-11-29T10:16:37.495Z,99616.69
2022-11-29T10:19:16.318Z,99614.06
2022-11-29T10:21:57.352Z,99617.47
2022-11-29T10:24:28.624Z,99609.34
2022-11-29T10:26:57.312Z,99609.09
2022-11-29T10:29:25.870Z,99611.84
2022-11-29T10:31:56.980Z,99611.31
2022-11-29T10:34:27.758Z,99611.88
2022-11-29T10:37:00.098Z,99597.66
2022-11-29T10:39:39.745Z,99600.41
2022-11-29T10:42:36.024Z,99604.47
2022-11-29T10:45:07.429Z,99604.97
2022-11-29T10:47:38.013Z,99606.34
2022-11-29T10:50:07.894Z,99595.59
2022-11-29T10:52:36.357Z,99601.44
2022-11-29T10:55:05.416Z,99587.50
2022-11-29T10:57:34.934Z,99590.06
2022-11-29T11:00:07.906Z,99592.59
2022-11-29T11:02:38.888Z,99594.63
2022-11-29T11:05:18.942Z,99591.38
2022-11-29T11:07:56.769Z,99589.44
2022-11-29T11:10:30.945Z,99605.63
2022-11-29T11:13:04.146Z,99601.19
2022-11-29T11:15:33.947Z,99608.06
2022-11-29T11:18:07.529Z,99594.56
2022-11-29T11:20:40.401Z,99597.59
2022-11-29T11:23:27.394Z,99600.53
2022-11-29T11:26:01.966Z,99604.84
2022-11-29T11:28:41.099Z,99600.72
2022-11-29T11:31:12.518Z,99608.97
2022-11-29T11:33:46.609Z,99599.38
2022-11-29T11:36:23.380Z,99602.94
2022-11-29T11:38:54.566Z,99604.84
2022-11-29T11:41:44.228Z,99594.47
2022-11-29T11:44:46.840Z,99603.28
2022-11-29T11:47:20.446Z,99600.84
2022-11-29T11:49:54.896Z,99598.66
2022-11-29T11:52:26.961Z,99594.34
2022-11-29T11:54:59.181Z,99604.22
2022-11-29T11:57:29.564Z,99595.47
2022-11-29T12:00:06.361Z,99598.50
2022-11-29T12:02:40.559Z,99598.84
2022-11-29T12:05:18.166Z,99599.72
2022-11-29T12:08:07.776Z,99598.44
2022-11-29T12:10:39.987Z,99596.88
2022-11-29T12:13:19.372Z,99595.06
2022-11-29T12:15:50.509Z,99599.56
2022-11-29T12:18:27.918Z,99592.50
2022-11-29T12:21:03.258Z,99594.50
2022-11-29T12:23:40.819Z,99585.47
2022-11-29T12:26:41.228Z,99591.81
2022-11-29T12:29:09.696Z,99589.97
2022-11-29T12:31:55.141Z,99581.72
2022-11-29T12:34:50.151Z,99586.66
2022-11-29T12:37:27.806Z,99582.53
2022-11-29T12:40:06.513Z,99584.47
2022-11-29T12:42:48.141Z,99580.09
2022-11-29T12:45:39.974Z,99585.56
2022-11-29T12:48:22.726Z,99587.22
2022-11-29T12:51:03.475Z,99584.97
2022-11-29T12:54:00.325Z,99582.75
2022-11-29T12:56:36.210Z,99592.94
2022-11-29T12:59:23.732Z,99591.78
2022-11-29T13:02:21.954Z,99585.16
2022-11-29T13:05:02.335Z,99598.34
2022-11-29T13:07:48.615Z,99593.63
2022-11-29T13:10:33.006Z,99600.19
2022-11-29T13:13:09.405Z,99597.38
2022-11-29T13:15:45.225Z,99598.16
2022-11-29T13:18:23.953Z,99597.84
2022-11-29T13:21:00.281Z,99607.13
2022-11-29T13:23:45.911Z,99604.34
2022-11-29T13:26:28.285Z,99600.72
2022-11-29T13:28:58.656Z,99607.00
2022-11-29T13:31:27.401Z,99618.22
2022-11-29T13:34:02.745Z,99610.50
2022-11-29T13:36:45.638Z,99618.94
2022-11-29T13:39:31.065Z,99613.16
2022-11-29T13:42:12.127Z,99620.25
2022-11-29T13:44:51.695Z,99627.59
2022-11-29T13:47:21.247Z,99620.94
2022-11-29T13:49:59.094Z,99614.56
2022-11-29T13:52:42.690Z,99625.25
2022-11-29T13:55:31.330Z,99625.75
2022-11-29T13:58:16.903Z,99620.19
2022-11-29T14:00:52.189Z,99628.94
2022-11-29T14:03:32.484Z,99633.53
2022-11-29T14:06:21.298Z,99635.94
2022-11-29T14:09:24.801Z,99635.03
2022-11-29T14:12:05.761Z,99633.28
2022-11-29T14:14:43.077Z,99645.84
2022-11-29T14:17:35.092Z,99638.66
2022-11-29T14:20:45.690Z,99636.66
2022-11-29T14:23:32.405Z,99637.50
2022-11-29T14:26:29.732Z,99639.31
2022-11-29T14:28:59.291Z,99640.41
2022-11-29T14:31:57.687Z,99642.00
2022-11-29T14:34:44.892Z,99642.00
2022-11-29T14:37:29.729Z,99642.00
2022-11-29T14:40:02.569Z,99652.97
2022-11-29T14:42:32.511Z,99644.72
2022-11-29T14:45:04.940Z,99654.88
2022-11-29T14:47:39.049Z,99649.91
2022-11-29T14:50:28.163Z,99652.31
2022-11-29T14:52:56.720Z,99662.97
2022-11-29T14:55:36.524Z,99665.63
2022-11-29T14:58:22.319Z,99663.63
2022-11-29T15:01:10.717Z,99669.59
2022-11-29T15:03:49.488Z,99661.06
2022-11-29T15:06:27.946Z,99663.72
2022-11-29T15:09:04.176Z,99667.19
2022-11-29T15:11:47.900Z,99669.59
2022-11-29T15:14:27.900Z,99669.84
2022-11-29T15:17:08.980Z,99670.34
2022-11-29T15:20:23.850Z,99672.66
2022-11-29T15:22:54.237Z,99683.06
2022-11-29T15:25:26.028Z,99683.78
2022-11-29T15:27:56.740Z,99679.06
2022-11-29T15:30:35.181Z,99683.59
2022-11-29T15:33:06.882Z,99688.75
2022-11-29T15:35:38.079Z,99676.63
2022-11-29T15:38:06.596Z,99676.28
2022-11-29T15:40:39.598Z,99678.69
2022-11-29T15:43:22.345Z,99682.75
2022-11-29T15:45:52.562Z,99683.22
2022-11-29T15:48:24.726Z,99683.97
2022-11-29T15:51:03.299Z,99680.06
2022-11-29T15:53:38.961Z,99683.75
2022-11-29T15:56:15.805Z,99686.44
2022-11-29T15:58:46.263Z,99697.28
2022-11-29T16:01:20.995Z,99689.16
2022-11-29T16:03:54.323Z,99687.16
2022-11-29T16:06:30.456Z,99691.44
2022-11-29T16:08:59.504Z,99696.00
2022-11-29T16:11:31.606Z,99688.72
2022-11-29T16:14:22.518Z,99696.84
2022-11-29T16:16:54.759Z,99696.75
2022-11-29T16:19:33.379Z,99699.94
2022-11-29T16:22:25.442Z,99697.94
2022-11-29T16:25:10.364Z,99693.56
2022-11-29T16:27:39.584Z,99697.59
2022-11-29T16:30:22.554Z,99687.97
2022-11-29T16:32:55.473Z,99699.13
2022-11-29T16:35:28.011Z,99692.22
2022-11-29T16:38:01.028Z,99694.97
2022-11-29T16:40:32.414Z,99690.84
2022-11-29T16:43:24.139Z,99692.16
2022-11-29T16:46:39.438Z,99699.97
2022-11-29T16:49:36.555Z,99696.66
2022-11-29T16:52:24.961Z,99710.56
2022-11-29T16:54:55.573Z,99703.22
2022-11-29T16:57:25.691Z,99706.75
2022-11-29T16:59:54.870Z,99707.84
2022-11-29T17:02:24.952Z,99715.22
2022-11-29T17:04:54.326Z,99717.34
2022-11-29T17:07:30.397Z,99711.88
2022-11-29T17:10:02.307Z,99721.97
2022-11-29T17:12:31.180Z,99717.34
2022-11-29T17:15:00.672Z,99716.75
2022-11-29T17:17:30.460Z,99724.97
2022-11-29T17:20:00.894Z,99720.56
2022-11-29T17:22:30.578Z,99732.59
2022-11-29T17:25:02.053Z,99733.88
2022-11-29T17:27:31.161Z,99731.38
2022-11-29T17:30:01.602Z,99728.03
2022-11-29T17:32:30.749Z,99723.88
2022-11-29T17:35:00.318Z,99729.59
2022-11-29T17:37:30.350Z,99731.72
2022-11-29T17:40:01.026Z,99739.34
2022-11-29T17:42:30.559Z,99734.09
2022-11-29T17:44:59.970Z,99740.88
2022-11-29T17:47:29.321Z,99743.84
2022-11-29T17:50:00.114Z,99744.31
2022-11-29T17:52:29.492Z,99744.81
2022-11-29T17:54:58.855Z,99744.22
2022-11-29T17:57:29.731Z,99743.59
2022-11-29T17:59:59.401Z,99751.19
2022-11-29T18:02:29.136Z,99750.38
2022-11-29T18:04:59.885Z,99758.19
2022-11-29T18:07:29.703Z,99760.34
2022-11-29T18:09:58.742Z,99757.25
2022-11-29T18:12:29.961Z,99756.88
2022-11-29T18:14:58.801Z,99757.34
2022-11-29T18:17:27.926Z,99756.97
2022-11-29T18:19:57.486Z,99757.44
2022-11-29T18:22:27.646Z,99757.94
2022-11-29T18:25:16.185Z,99758.38
2022-11-29T18:27:53.711Z,99756.94
2022-11-29T18:30:23.547Z,99761.81
2022-11-29T18:32:56.102Z,99769.16
2022-11-29T18:35:28.478Z,99761.22
2022-11-29T18:38:14.688Z,99760.63
2022-11-29T18:40:47.150Z,99763.81
2022-11-29T18:43:20.722Z,99765.09
2022-11-29T18:45:51.880Z,99760.47
2022-11-29T18:48:21.996Z,99758.81
2022-11-29T18:50:52.601Z,99767.25
2022-11-29T18:53:24.277Z,99765.56
2022-11-29T18:56:03.584Z,99763.91
2022-11-29T18:58:36.687Z,99773.16
2022-11-29T19:01:13.106Z,99777.78
2022-11-29T19:03:45.605Z,99781.34
2022-11-29T19:06:18.243Z,99783.03
2022-11-29T19:08:48.694Z,99781.34
2022-11-29T19:11:22.114Z,99776.72
2022-11-29T19:13:57.920Z,99786.81
2022-11-29T19:16:32.607Z,99780.31
2022-11-29T19:19:07.873Z,99779.47
2022-11-29T19:21:40.824Z,99785.75
2022-11-29T19:24:18.936Z,99777.78
2022-11-29T19:26:53.569Z,99781.34
2022-11-29T19:29:25.630Z,99782.19
2022-11-29T19:31:56.016Z,99777.56
2022-11-29T19:34:27.229Z,99773.53
2022-11-29T19:36:57.411Z,99778.75
2022-11-29T19:39:29.197Z,99784.38
2022-11-29T19:41:58.545Z,99787.47
2022-11-29T19:44:48.301Z,99796.03
2022-11-29T19:47:23.634Z,99799.13
2022-11-29T19:49:56.780Z,99795.09
2022-11-29T19:52:29.232Z,99794.63
2022-11-29T19:55:00.160Z,99799.25
2022-11-29T19:57:32.333Z,99802.59
2022-11-29T20:00:05.111Z,99798.44
2022-11-29T20:02:37.014Z,99799.03
2022-11-29T20:05:10.654Z,99795.47
2022-11-29T20:07:40.960Z,99794.63
2022-11-29T20:10:12.246Z,99796.53
2022-11-29T20:12:42.525Z,99800.09
2022-11-29T20:15:15.769Z,99803.88
2022-11-29T20:17:45.782Z,99785.59
2022-11-29T20:20:16.501Z,99792.97
2022-11-29T20:22:48.674Z,99800.31
2022-11-29T20:25:25.829Z,99805.78
2022-11-29T20:27:56.658Z,99807.69
2022-11-29T20:30:28.580Z,99815.91
2022-11-29T20:32:59.102Z,99815.66
2022-11-29T20:35:32.180Z,99812.09
2022-11-29T20:38:28.981Z,99808.50
2022-11-29T20:41:09.219Z,99813.97
2022-11-29T20:43:49.453Z,99815.06
2022-11-29T20:46:23.060Z,99815.06
2022-11-29T20:49:06.281Z,99811.25
2022-11-29T20:51:44.588Z,99806.41
2022-11-29T20:54:22.322Z,99796.88
2022-11-29T20:56:51.759Z,99809.84
2022-11-29T20:59:22.111Z,99806.44
2022-11-29T21:01:54.910Z,99806.81
2022-11-29T21:04:25.059Z,99804.19
2022-11-29T21:06:54.498Z,99808.72
2022-11-29T21:09:23.498Z,99813.47
2022-11-29T21:11:53.016Z,99809.22
2022-11-29T21:14:23.380Z,99815.91
2022-11-29T21:16:54.192Z,99813.50
2022-11-29T21:19:27.690Z,99818.28
2022-11-29T21:22:09.114Z,99816.72
2022-11-29T21:24:48.986Z,99825.31
2022-11-29T21:27:26.902Z,99816.03
2022-11-29T21:29:56.814Z,99825.06
2022-11-29T21:32:28.528Z,99822.09
2022-11-29T21:34:57.252Z,99814.72
2022-11-29T21:37:31.242Z,99811.53
2022-11-29T21:39:59.908Z,99812.94
2022-11-29T21:42:28.477Z,99815.22
2022-11-29T21:44:56.884Z,99814.97
2022-11-29T21:47:26.853Z,99815.56
2022-11-29T21:49:56.329Z,99814.25
2022-11-29T21:52:24.838Z,99813.22
2022-11-29T21:54:53.293Z,99818.44
2022-11-29T21:57:21.844Z,99819.28
2022-11-29T21:59:50.224Z,99817.38
2022-11-29T22:02:18.801Z,99813.56
2022-11-29T22:04:48.921Z,99816.28
2022-11-29T22:07:17.508Z,99808.91
2022-11-29T22:09:45.905Z,99815.22
2022-11-29T22:12:32.961Z,99811.66
2022-11-29T22:15:02.364Z,99812.50
2022-11-29T22:17:30.809Z,99813.31
2022-11-29T22:20:00.510Z,99802.34
2022-11-29T22:22:28.935Z,99806.19
2022-11-29T22:24:57.273Z,99812.50
2022-11-29T22:27:25.710Z,99807.84
2022-11-29T22:29:54.162Z,99805.09
2022-11-29T22:32:22.580Z,99807.63
2022-11-29T22:34:50.930Z,99810.34
2022-11-29T22:37:20.694Z,99796.66
2022-11-29T22:39:49.420Z,99801.31
2022-11-29T22:42:17.797Z,99798.81
2022-11-29T22:44:46.414Z,99793.81
2022-11-29T22:47:15.137Z,99805.00
2022-11-29T22:49:44.574Z,99799.28
2022-11-29T22:52:12.910Z,99796.78
2022-11-29T22:54:42.656Z,99801.44
2022-11-29T22:57:11.064Z,99797.84
2022-11-29T22:59:39.437Z,99810.47
2022-11-29T23:02:07.846Z,99797.84
2022-11-29T23:04:36.250Z,99807.75
2022-11-29T23:07:04.608Z,99804.16
2022-11-29T23:09:32.972Z,99800.59
2022-11-29T23:12:02.808Z,99807.94
2022-11-29T23:14:31.168Z,99809.84
2022-11-29T23:16:59.537Z,99817.25
2022-11-29T23:19:29.222Z,99812.00
2022-11-29T23:21:57.598Z,99814.13
2022-11-29T23:24:26.051Z,99809.75
2022-11-29T23:26:54.438Z,99815.22
2022-11-29T23:29:24.163Z,99811.91
2022-11-29T23:31:52.614Z,99809.97
2022-11-29T23:34:21.233Z,99805.81
2022-11-29T23:36:52.909Z,99811.28
2022-11-29T23:39:21.838Z,99814.50
2022-11-29T23:41:50.227Z,99807.81
2022-11-29T23:44:18.587Z,99807.47
2022-11-29T23:46:48.391Z,99813.88
2022-11-29T23:49:16.778Z,99809.59
2022-11-29T23:51:45.121Z,99810.28
2022-11-29T23:54:13.487Z,99813.97
2022-11-29T23:56:41.857Z,99811.09
2022-11-29T23:59:10.182Z,99812.84
